createdAt,value
2019-03-20T00:00:45.407Z,6.97
2019-03-20T00:03:18.826Z,7.03
2019-03-20T00:05:52.755Z,7.00
2019-03-20T00:08:24.654Z,7.06
2019-03-20T00:10:58.070Z,7.18
2019-03-20T00:13:30.989Z,7.11
2019-03-20T00:16:03.381Z,7.11
2019-03-20T00:18:35.501Z,7.13
2019-03-20T00:21:10.124Z,7.03
2019-03-20T00:23:42.039Z,7.01
2019-03-20T00:26:16.146Z,7.01
2019-03-20T00:28:48.001Z,7.07
2019-03-20T00:31:19.857Z,7.24
2019-03-20T00:33:51.753Z,7.08
2019-03-20T00:36:23.617Z,7.11
2019-03-20T00:38:57.109Z,7.15
2019-03-20T00:41:28.833Z,7.16
2019-03-20T00:44:01.396Z,7.31
2019-03-20T00:46:36.420Z,7.23
2019-03-20T00:49:09.315Z,7.18
2019-03-20T00:51:41.336Z,7.12
2019-03-20T00:54:13.174Z,7.15
2019-03-20T00:56:44.958Z,7.22
2019-03-20T00:59:16.790Z,7.31
2019-03-20T01:01:49.100Z,7.16
2019-03-20T01:04:21.448Z,7.06
2019-03-20T01:06:53.745Z,7.09
2019-03-20T01:09:26.220Z,7.29
2019-03-20T01:12:00.264Z,7.32
2019-03-20T01:14:32.112Z,7.16
2019-03-20T01:17:05.425Z,7.12
2019-03-20T01:19:37.433Z,7.22
2019-03-20T01:22:09.259Z,7.32
2019-03-20T01:24:41.601Z,7.37
2019-03-20T01:27:13.402Z,7.34
2019-03-20T01:29:52.763Z,7.29
2019-03-20T01:32:24.745Z,7.22
2019-03-20T01:34:57.215Z,7.13
2019-03-20T01:37:29.096Z,7.21
2019-03-20T01:40:00.828Z,7.26
2019-03-20T01:42:34.042Z,7.34
2019-03-20T01:45:07.548Z,7.36
2019-03-20T01:47:39.618Z,7.34
2019-03-20T01:50:11.649Z,7.18
2019-03-20T01:52:43.870Z,6.99
2019-03-20T01:55:17.222Z,7.08
2019-03-20T01:57:50.270Z,7.02
2019-03-20T02:00:22.301Z,6.94
2019-03-20T02:02:54.118Z,6.93
2019-03-20T02:05:35.069Z,7.04
2019-03-20T02:07:59.638Z,6.92
2019-03-20T02:10:31.731Z,6.91
2019-03-20T02:13:04.896Z,6.89
2019-03-20T02:15:39.446Z,7.00
2019-03-20T02:18:10.279Z,7.01
2019-03-20T02:20:42.243Z,6.86
2019-03-20T02:23:13.882Z,6.83
2019-03-20T02:25:46.194Z,6.92
2019-03-20T02:28:17.819Z,6.95
2019-03-20T02:30:49.734Z,6.97
2019-03-20T02:33:22.800Z,6.85
2019-03-20T02:35:55.901Z,6.95
2019-03-20T02:38:29.074Z,6.89
2019-03-20T02:41:00.888Z,6.92
2019-03-20T02:43:33.935Z,6.91
2019-03-20T02:46:07.122Z,6.89
2019-03-20T02:48:37.893Z,6.81
2019-03-20T02:51:11.589Z,6.80
2019-03-20T02:53:43.262Z,6.87
2019-03-20T02:56:18.613Z,6.87
2019-03-20T02:58:50.480Z,6.68
2019-03-20T03:01:22.887Z,6.77
2019-03-20T03:03:56.602Z,6.74
2019-03-20T03:06:28.801Z,6.80
2019-03-20T03:09:00.615Z,6.75
2019-03-20T03:11:33.439Z,6.76
2019-03-20T03:14:05.479Z,6.78
2019-03-20T03:16:37.226Z,6.75
2019-03-20T03:19:09.542Z,6.77
2019-03-20T03:21:41.835Z,6.74
2019-03-20T03:24:13.663Z,6.77
2019-03-20T03:26:49.128Z,6.74
2019-03-20T03:29:22.232Z,6.70
2019-03-20T03:31:54.142Z,6.66
2019-03-20T03:34:28.958Z,6.66
2019-03-20T03:37:00.424Z,6.68
2019-03-20T03:39:32.276Z,6.71
2019-03-20T03:42:05.430Z,6.63
2019-03-20T03:44:37.995Z,6.64
2019-03-20T03:47:10.449Z,6.71
2019-03-20T03:49:42.860Z,6.75
2019-03-20T03:52:14.885Z,6.76
2019-03-20T03:54:46.694Z,6.72
2019-03-20T03:57:19.087Z,6.69
2019-03-20T03:59:50.939Z,6.66
2019-03-20T04:02:23.069Z,6.67
2019-03-20T04:04:57.289Z,6.69
2019-03-20T04:07:29.072Z,6.72
2019-03-20T04:10:00.816Z,6.80
2019-03-20T04:12:34.997Z,6.74
2019-03-20T04:15:06.965Z,6.74
2019-03-20T04:17:38.832Z,6.71
2019-03-20T04:20:12.373Z,6.84
2019-03-20T04:22:44.901Z,6.76
2019-03-20T04:25:16.889Z,6.79
2019-03-20T04:27:48.603Z,6.75
2019-03-20T04:30:21.865Z,6.71
2019-03-20T04:32:53.917Z,6.71
2019-03-20T04:35:25.610Z,6.78
2019-03-20T04:37:57.529Z,6.79
2019-03-20T04:40:29.494Z,6.71
2019-03-20T04:43:01.468Z,6.76
2019-03-20T04:45:32.183Z,6.80
2019-03-20T04:48:04.028Z,6.76
2019-03-20T04:50:35.813Z,6.71
2019-03-20T04:53:07.515Z,6.67
2019-03-20T04:55:39.203Z,6.69
2019-03-20T04:58:11.104Z,6.71
2019-03-20T05:00:42.790Z,6.68
2019-03-20T05:03:14.554Z,6.53
2019-03-20T05:05:46.376Z,6.62
2019-03-20T05:08:18.179Z,6.42
2019-03-20T05:10:49.885Z,6.52
2019-03-20T05:13:21.627Z,6.40
2019-03-20T05:15:54.645Z,6.32
2019-03-20T05:20:57.071Z,6.29
2019-03-20T05:23:28.885Z,6.37
2019-03-20T05:26:00.695Z,6.41
2019-03-20T05:28:32.443Z,6.52
2019-03-20T05:31:04.144Z,6.56
2019-03-20T05:33:35.950Z,6.54
2019-03-20T05:36:07.722Z,6.60
2019-03-20T05:38:40.833Z,6.62
2019-03-20T05:41:12.661Z,6.70
2019-03-20T05:43:44.512Z,6.65
2019-03-20T05:46:18.999Z,6.68
2019-03-20T05:48:50.757Z,6.75
2019-03-20T05:51:22.960Z,6.75
2019-03-20T05:53:54.885Z,6.79
2019-03-20T05:56:26.707Z,6.85
2019-03-20T05:58:58.560Z,6.85
2019-03-20T06:01:30.429Z,6.82
2019-03-20T06:04:02.280Z,6.82
2019-03-20T06:06:34.084Z,6.84
2019-03-20T06:09:07.554Z,6.81
2019-03-20T06:11:39.241Z,6.88
2019-03-20T06:14:12.229Z,6.91
2019-03-20T06:16:44.639Z,7.09
2019-03-20T06:19:16.970Z,7.00
2019-03-20T06:21:48.798Z,7.05
2019-03-20T06:24:21.499Z,7.10
2019-03-20T06:26:53.944Z,7.15
2019-03-20T06:29:32.027Z,7.17
2019-03-20T06:32:04.809Z,7.13
2019-03-20T06:34:36.775Z,7.25
2019-03-20T06:37:08.812Z,7.20
2019-03-20T06:39:40.583Z,7.14
2019-03-20T06:42:12.474Z,7.19
2019-03-20T06:44:44.301Z,7.13
2019-03-20T06:47:16.510Z,7.13
2019-03-20T06:49:48.407Z,7.18
2019-03-20T06:54:50.865Z,7.26
2019-03-20T06:57:22.875Z,7.37
2019-03-20T07:00:37.926Z,7.49
2019-03-20T07:03:13.583Z,7.52
2019-03-20T07:06:17.412Z,7.63
2019-03-20T07:08:57.499Z,7.72
2019-03-20T07:11:28.557Z,7.62
2019-03-20T07:14:00.461Z,7.54
2019-03-20T07:16:32.780Z,7.51
2019-03-20T07:19:05.148Z,7.52
2019-03-20T07:21:42.769Z,7.65
2019-03-20T07:24:18.841Z,7.72
2019-03-20T07:26:51.553Z,7.81
2019-03-20T07:29:26.298Z,7.93
2019-03-20T07:31:58.426Z,8.08
2019-03-20T07:34:34.131Z,8.12
2019-03-20T07:37:06.318Z,8.25
2019-03-20T07:39:39.591Z,8.34
2019-03-20T07:42:11.472Z,8.56
2019-03-20T07:44:43.484Z,8.72
2019-03-20T07:47:15.261Z,8.74
2019-03-20T07:49:48.601Z,8.77
2019-03-20T07:52:20.349Z,8.83
2019-03-20T07:54:52.149Z,8.89
2019-03-20T07:57:25.515Z,8.95
2019-03-20T07:59:57.713Z,8.93
2019-03-20T08:02:32.555Z,9.13
2019-03-20T08:05:06.345Z,9.10
2019-03-20T08:07:38.351Z,9.40
2019-03-20T08:10:12.570Z,9.86
2019-03-20T08:12:45.817Z,10.17
2019-03-20T08:15:19.030Z,10.63
2019-03-20T08:17:51.012Z,10.94
2019-03-20T08:20:22.974Z,11.22
2019-03-20T08:22:55.351Z,11.40
2019-03-20T08:25:27.275Z,11.42
2019-03-20T08:27:59.150Z,11.17
2019-03-20T08:30:31.104Z,11.48
2019-03-20T08:33:04.939Z,11.80
2019-03-20T08:35:43.812Z,12.00
2019-03-20T08:38:18.464Z,11.79
2019-03-20T08:40:51.536Z,11.43
2019-03-20T08:43:23.495Z,11.64
2019-03-20T08:45:55.621Z,11.57
2019-03-20T08:48:27.493Z,11.57
2019-03-20T08:50:59.475Z,11.67
2019-03-20T08:53:31.841Z,11.50
2019-03-20T08:56:03.822Z,11.32
2019-03-20T08:58:36.017Z,11.31
2019-03-20T09:01:09.785Z,11.27
2019-03-20T09:03:42.839Z,11.58
2019-03-20T09:06:18.619Z,11.88
2019-03-20T09:08:50.549Z,11.93
2019-03-20T09:11:22.349Z,11.95
2019-03-20T09:13:54.264Z,12.59
2019-03-20T09:16:27.785Z,13.17
2019-03-20T09:18:59.823Z,13.42
2019-03-20T09:21:33.187Z,13.30
2019-03-20T09:24:07.021Z,12.90
2019-03-20T09:26:42.766Z,12.94
2019-03-20T09:29:18.756Z,13.10
2019-03-20T09:31:50.228Z,12.74
2019-03-20T09:34:22.285Z,12.45
2019-03-20T09:36:54.096Z,12.52
2019-03-20T09:39:25.881Z,12.65
2019-03-20T09:41:57.758Z,12.72
2019-03-20T09:44:30.702Z,12.73
2019-03-20T09:47:02.697Z,12.50
2019-03-20T09:49:36.020Z,12.60
2019-03-20T09:52:07.948Z,12.61
2019-03-20T09:54:39.797Z,12.32
2019-03-20T09:57:11.757Z,12.27
2019-03-20T10:00:05.777Z,12.45
2019-03-20T10:02:42.849Z,12.67
2019-03-20T10:05:19.545Z,12.74
2019-03-20T10:07:57.731Z,12.85
2019-03-20T10:10:36.531Z,12.76
2019-03-20T10:13:11.198Z,12.81
2019-03-20T10:15:42.973Z,12.80
2019-03-20T10:18:16.040Z,12.92
2019-03-20T10:20:47.920Z,12.99
2019-03-20T10:23:18.864Z,12.78
2019-03-20T10:25:51.908Z,12.58
2019-03-20T10:28:23.686Z,12.66
2019-03-20T10:30:55.522Z,12.57
2019-03-20T10:33:27.292Z,12.86
2019-03-20T10:35:59.207Z,13.49
2019-03-20T10:38:33.285Z,13.98
2019-03-20T10:41:06.652Z,14.52
2019-03-20T10:43:39.813Z,15.02
2019-03-20T10:46:14.758Z,15.13
2019-03-20T10:48:46.753Z,15.39
2019-03-20T10:51:20.100Z,15.38
2019-03-20T10:53:52.021Z,15.53
2019-03-20T10:56:23.910Z,16.14
2019-03-20T10:58:56.035Z,15.90
2019-03-20T11:01:27.979Z,16.05
2019-03-20T11:03:59.863Z,16.39
2019-03-20T11:06:31.731Z,16.28
2019-03-20T11:09:03.820Z,16.30
2019-03-20T11:11:38.971Z,16.45
2019-03-20T11:14:10.946Z,16.27
2019-03-20T11:16:44.515Z,16.50
2019-03-20T11:19:16.565Z,16.31
2019-03-20T11:21:49.667Z,16.31
2019-03-20T11:24:22.105Z,16.26
2019-03-20T11:26:53.932Z,16.21
2019-03-20T11:29:26.830Z,16.39
2019-03-20T11:31:58.744Z,16.40
2019-03-20T11:34:30.517Z,15.73
2019-03-20T11:37:03.559Z,15.52
2019-03-20T11:39:35.545Z,14.85
2019-03-20T11:42:07.470Z,14.67
2019-03-20T11:44:39.180Z,14.41
2019-03-20T11:47:13.324Z,14.58
2019-03-20T11:49:48.293Z,14.57
2019-03-20T11:52:20.239Z,14.62
2019-03-20T11:54:52.143Z,14.43
2019-03-20T11:57:24.032Z,14.22
2019-03-20T11:59:57.331Z,14.05
2019-03-20T12:02:29.722Z,14.16
2019-03-20T12:05:02.343Z,14.40
2019-03-20T12:07:34.240Z,14.22
2019-03-20T12:10:08.061Z,14.22
2019-03-20T12:12:43.381Z,14.05
2019-03-20T12:15:17.089Z,13.95
2019-03-20T12:17:50.682Z,14.01
2019-03-20T12:20:24.090Z,13.70
2019-03-20T12:22:57.725Z,13.60
2019-03-20T12:25:31.272Z,13.58
2019-03-20T12:28:03.219Z,13.59
2019-03-20T12:30:38.276Z,13.43
2019-03-20T12:33:10.187Z,13.33
2019-03-20T12:35:40.782Z,13.33
2019-03-20T12:38:14.710Z,13.31
2019-03-20T12:40:46.403Z,13.31
2019-03-20T12:43:19.127Z,13.49
2019-03-20T12:45:53.551Z,13.20
2019-03-20T12:48:25.447Z,13.14
2019-03-20T12:50:57.838Z,12.98
2019-03-20T12:53:32.018Z,13.07
2019-03-20T12:56:04.180Z,13.14
2019-03-20T12:58:38.799Z,13.13
2019-03-20T13:01:10.572Z,12.92
2019-03-20T13:03:42.556Z,12.96
2019-03-20T13:06:14.431Z,12.85
2019-03-20T13:08:46.784Z,12.58
2019-03-20T13:11:20.025Z,12.44
2019-03-20T13:13:53.282Z,12.22
2019-03-20T13:16:26.294Z,12.05
2019-03-20T13:19:01.063Z,12.07
2019-03-20T13:21:33.035Z,12.07
2019-03-20T13:24:05.756Z,11.88
2019-03-20T13:26:37.773Z,11.85
2019-03-20T13:29:09.596Z,11.65
2019-03-20T13:31:42.703Z,11.44
2019-03-20T13:34:14.463Z,11.44
2019-03-20T13:36:49.433Z,11.30
2019-03-20T13:39:32.176Z,11.21
2019-03-20T13:42:10.737Z,11.12
2019-03-20T13:44:44.153Z,11.14
2019-03-20T13:47:16.615Z,11.21
2019-03-20T13:49:48.669Z,11.12
2019-03-20T13:52:20.568Z,11.02
2019-03-20T13:54:52.481Z,10.79
2019-03-20T13:57:24.568Z,10.79
2019-03-20T13:59:56.491Z,10.74
2019-03-20T14:02:28.489Z,10.64
2019-03-20T14:05:00.509Z,10.61
2019-03-20T14:07:32.467Z,10.53
2019-03-20T14:10:05.190Z,10.44
2019-03-20T14:12:37.446Z,10.31
2019-03-20T14:15:11.746Z,10.33
2019-03-20T14:17:43.705Z,10.32
2019-03-20T14:20:19.026Z,10.32
2019-03-20T14:22:52.562Z,10.35
2019-03-20T14:25:24.693Z,10.22
2019-03-20T14:27:58.431Z,10.14
2019-03-20T14:30:30.325Z,10.12
2019-03-20T14:33:02.164Z,10.17
2019-03-20T14:35:33.994Z,10.14
2019-03-20T14:38:05.840Z,10.18
2019-03-20T14:40:37.874Z,10.15
2019-03-20T14:43:09.754Z,10.12
2019-03-20T14:45:41.834Z,10.15
2019-03-20T14:48:14.313Z,10.07
2019-03-20T14:50:50.185Z,10.07
2019-03-20T14:53:23.182Z,10.04
2019-03-20T14:55:56.242Z,10.03
2019-03-20T14:58:28.207Z,10.02
2019-03-20T15:01:01.726Z,9.99
2019-03-20T15:03:34.955Z,9.88
2019-03-20T15:06:07.033Z,9.93
2019-03-20T15:08:39.117Z,9.99
2019-03-20T15:11:11.678Z,9.88
2019-03-20T15:13:46.736Z,9.85
2019-03-20T15:16:22.987Z,9.96
2019-03-20T15:18:57.979Z,10.03
2019-03-20T15:21:31.122Z,9.94
2019-03-20T15:24:03.131Z,10.01
2019-03-20T15:26:35.294Z,10.08
2019-03-20T15:29:07.675Z,10.12
2019-03-20T15:31:40.864Z,10.16
2019-03-20T15:34:13.974Z,10.14
2019-03-20T15:36:46.353Z,10.27
2019-03-20T15:39:19.896Z,10.40
2019-03-20T15:41:52.768Z,10.43
2019-03-20T15:44:37.369Z,10.36
2019-03-20T15:47:20.417Z,10.40
2019-03-20T15:49:54.387Z,10.42
2019-03-20T15:52:34.156Z,10.62
2019-03-20T15:55:22.788Z,10.62
2019-03-20T15:57:56.238Z,10.66
2019-03-20T16:00:28.533Z,10.66
2019-03-20T16:03:05.770Z,10.51
2019-03-20T16:05:40.000Z,10.51
2019-03-20T16:08:14.183Z,10.46
2019-03-20T16:10:50.479Z,10.46
2019-03-20T16:13:25.373Z,10.49
2019-03-20T16:16:00.524Z,10.54
2019-03-20T16:18:33.407Z,10.43
2019-03-20T16:21:36.195Z,10.46
2019-03-20T16:24:21.339Z,10.45
2019-03-20T16:26:57.249Z,10.45
2019-03-20T16:29:29.259Z,10.51
2019-03-20T16:32:01.208Z,10.51
2019-03-20T16:34:33.420Z,10.48
2019-03-20T16:37:05.407Z,10.45
2019-03-20T16:39:40.450Z,10.40
2019-03-20T16:42:12.490Z,10.32
2019-03-20T16:44:44.263Z,10.30
2019-03-20T16:47:15.975Z,10.28
2019-03-20T16:49:47.629Z,10.19
2019-03-20T16:52:19.442Z,10.11
2019-03-20T16:54:52.571Z,9.99
2019-03-20T16:57:26.483Z,9.93
2019-03-20T16:59:58.195Z,9.93
2019-03-20T17:02:32.463Z,9.80
2019-03-20T17:05:04.811Z,9.75
2019-03-20T17:07:37.101Z,9.72
2019-03-20T17:10:12.678Z,9.62
2019-03-20T17:12:57.609Z,9.58
2019-03-20T17:15:45.945Z,9.53
2019-03-20T17:18:17.666Z,9.51
2019-03-20T17:20:49.468Z,9.44
2019-03-20T17:23:31.785Z,9.47
2019-03-20T17:26:03.650Z,9.30
2019-03-20T17:28:35.426Z,9.19
2019-03-20T17:31:07.262Z,9.13
2019-03-20T17:33:40.629Z,9.16
2019-03-20T17:36:12.441Z,9.15
2019-03-20T17:38:44.255Z,9.19
2019-03-20T17:41:17.360Z,9.20
2019-03-20T17:43:49.638Z,9.19
2019-03-20T17:46:21.477Z,9.17
2019-03-20T17:48:53.274Z,9.18
2019-03-20T17:51:25.018Z,9.18
2019-03-20T17:53:56.685Z,9.11
2019-03-20T17:56:29.356Z,9.00
2019-03-20T17:59:01.090Z,8.99
2019-03-20T18:01:32.734Z,8.98
2019-03-20T18:04:04.923Z,9.00
2019-03-20T18:06:41.265Z,8.97
2019-03-20T18:09:12.811Z,8.98
2019-03-20T18:11:47.725Z,8.88
2019-03-20T18:14:17.731Z,8.73
2019-03-20T18:16:49.371Z,8.72
2019-03-20T18:19:21.023Z,8.73
2019-03-20T18:21:52.820Z,8.72
2019-03-20T18:24:25.983Z,8.57
2019-03-20T18:26:57.785Z,8.56
2019-03-20T18:29:29.631Z,8.57
2019-03-20T18:32:01.512Z,8.48
2019-03-20T18:34:33.226Z,8.33
2019-03-20T18:37:05.129Z,8.23
2019-03-20T18:39:38.486Z,8.14
2019-03-20T18:42:13.120Z,7.95
2019-03-20T18:44:44.990Z,8.08
2019-03-20T18:47:17.662Z,8.10
2019-03-20T18:49:50.628Z,8.15
2019-03-20T18:52:22.262Z,8.10
2019-03-20T18:54:53.967Z,7.95
2019-03-20T18:57:29.501Z,7.94
2019-03-20T19:00:00.845Z,7.99
2019-03-20T19:02:32.684Z,8.00
2019-03-20T19:05:04.389Z,7.95
2019-03-20T19:07:36.795Z,7.88
2019-03-20T19:10:09.721Z,7.93
2019-03-20T19:12:41.610Z,7.91
2019-03-20T19:15:15.542Z,7.97
2019-03-20T19:17:56.819Z,8.05
2019-03-20T19:20:29.705Z,8.05
2019-03-20T19:23:01.705Z,8.00
2019-03-20T19:25:37.429Z,8.03
2019-03-20T19:28:12.197Z,7.93
2019-03-20T19:30:50.023Z,7.88
2019-03-20T19:33:23.993Z,7.88
2019-03-20T19:35:55.797Z,7.76
2019-03-20T19:38:35.104Z,7.73
2019-03-20T19:42:19.586Z,7.77
2019-03-20T19:45:16.528Z,7.68
2019-03-20T19:48:39.077Z,7.74
2019-03-20T19:51:43.334Z,7.80
2019-03-20T19:54:20.476Z,7.90
2019-03-20T19:56:53.313Z,7.89
2019-03-20T19:59:27.463Z,7.92
2019-03-20T20:03:03.697Z,7.97
2019-03-20T20:05:45.423Z,7.99
2019-03-20T20:08:19.302Z,8.09
2019-03-20T20:10:51.006Z,8.16
2019-03-20T20:13:22.976Z,8.14
2019-03-20T20:15:58.798Z,8.19
2019-03-20T20:18:30.589Z,8.20
2019-03-20T20:21:04.030Z,8.22
2019-03-20T20:23:38.962Z,8.26
2019-03-20T20:26:10.701Z,8.24
2019-03-20T20:28:46.227Z,8.26
2019-03-20T20:31:18.663Z,8.29
2019-03-20T20:33:50.271Z,8.34
2019-03-20T20:36:21.858Z,8.33
2019-03-20T20:38:53.566Z,8.35
2019-03-20T20:41:26.420Z,8.40
2019-03-20T20:43:58.530Z,8.37
2019-03-20T20:46:38.833Z,8.29
2019-03-20T20:49:10.488Z,8.29
2019-03-20T20:51:42.217Z,8.28
2019-03-20T20:54:14.490Z,8.25
2019-03-20T20:56:46.084Z,8.30
2019-03-20T20:59:17.761Z,8.33
2019-03-20T21:01:49.520Z,8.38
2019-03-20T21:04:26.278Z,8.30
2019-03-20T21:06:57.967Z,8.24
2019-03-20T21:09:29.755Z,8.21
2019-03-20T21:12:01.594Z,8.26
2019-03-20T21:14:33.556Z,8.32
2019-03-20T21:17:12.553Z,8.28
2019-03-20T21:19:45.203Z,8.19
2019-03-20T21:22:54.042Z,8.22
2019-03-20T21:25:27.961Z,8.29
2019-03-20T21:28:58.448Z,8.23
2019-03-20T21:32:04.399Z,8.18
2019-03-20T21:35:11.575Z,8.21
2019-03-20T21:38:15.404Z,8.23
2019-03-20T21:41:37.013Z,8.20
2019-03-20T21:44:33.626Z,8.26
2019-03-20T21:47:35.312Z,8.21
2019-03-20T21:51:02.530Z,8.27
2019-03-20T21:54:04.848Z,8.34
2019-03-20T21:56:40.640Z,8.15
2019-03-20T22:00:01.225Z,8.08
2019-03-20T22:02:42.349Z,8.05
2019-03-20T22:05:47.654Z,8.12
2019-03-20T22:08:19.876Z,8.07
2019-03-20T22:11:36.170Z,8.08
2019-03-20T22:14:13.265Z,8.07
2019-03-20T22:17:32.150Z,7.99
2019-03-20T22:21:02.168Z,8.00
2019-03-20T22:24:23.565Z,7.83
2019-03-20T22:27:33.539Z,7.84
2019-03-20T22:30:06.502Z,7.83
2019-03-20T22:33:12.975Z,7.76
2019-03-20T22:36:00.892Z,7.76
2019-03-20T22:39:10.390Z,7.76
2019-03-20T22:42:14.237Z,7.70
2019-03-20T22:45:15.322Z,7.71
2019-03-20T22:48:30.195Z,7.68
2019-03-20T22:51:13.894Z,7.70
2019-03-20T22:54:21.808Z,7.62
2019-03-20T22:57:40.603Z,7.63
2019-03-20T23:00:14.173Z,7.66
2019-03-20T23:03:15.637Z,7.62
2019-03-20T23:05:47.923Z,7.61
2019-03-20T23:08:20.522Z,7.56
2019-03-20T23:10:55.192Z,7.49
2019-03-20T23:13:28.894Z,7.49
2019-03-20T23:16:01.095Z,7.43
2019-03-20T23:18:33.393Z,7.44
2019-03-20T23:21:06.916Z,7.41
2019-03-20T23:23:42.225Z,7.44
2019-03-20T23:26:14.473Z,7.20
2019-03-20T23:28:46.800Z,6.97
2019-03-20T23:31:19.599Z,7.01
2019-03-20T23:33:52.277Z,6.94
2019-03-20T23:36:28.729Z,6.95
2019-03-20T23:39:00.827Z,7.04
2019-03-20T23:41:34.796Z,7.04
2019-03-20T23:44:36.703Z,6.96
2019-03-20T23:47:13.415Z,6.94
2019-03-20T23:49:45.763Z,6.92
2019-03-20T23:52:18.262Z,6.86
2019-03-20T23:54:58.370Z,6.89
2019-03-20T23:57:33.632Z,6.78
